Time;durP1;ratioP1;P1;durP2;ratioP2;P2;SDS_P1;SDS_P2;PMS_P1;PMS_P2;Temp;Humidity;BMP_temperature;BMP_pressure;BME280_temperature;BME280_humidity;BME280_pressure;Samples;Min_cycle;Max_cycle;Signal;HPM_P1;HPM_P2
2022/12/26 00:02:47;;;;;;;8.65;3.95;;;;;;;7.68;100.00;100600.94;6226989;28;20050;-73
2022/12/26 00:05:48;;;;;;;8.85;4.03;;;;;;;7.68;100.00;100595.72;6226872;28;20050;-74
2022/12/26 00:08:50;;;;;;;10.38;4.30;;;;;;;7.66;100.00;100599.28;6226839;28;20053;-73
2022/12/26 00:11:51;;;;;;;9.57;4.38;;;;;;;7.65;100.00;100597.59;6233311;28;20061;-73
2022/12/26 00:14:53;;;;;;;12.38;5.38;;;;;;;7.66;100.00;100594.91;6241110;28;20046;-74
2022/12/26 00:17:55;;;;;;;13.82;5.10;;;;;;;7.67;100.00;100607.06;6243092;28;20055;-73
2022/12/26 00:20:56;;;;;;;11.63;4.07;;;;;;;7.67;100.00;100593.13;6250865;28;20049;-73
2022/12/26 00:23:59;;;;;;;9.70;3.92;;;;;;;7.65;100.00;100600.22;6240483;28;20053;-73
2022/12/26 00:27:01;;;;;;;7.00;3.33;;;;;;;7.64;100.00;100607.22;6242857;28;20049;-73
2022/12/26 00:30:02;;;;;;;11.35;4.50;;;;;;;7.65;100.00;100593.22;6250592;28;20056;-73
2022/12/26 00:33:05;;;;;;;7.68;4.10;;;;;;;7.67;100.00;100580.91;6251053;28;20060;-74
2022/12/26 00:36:09;;;;;;;12.45;4.10;;;;;;;7.69;100.00;100588.72;6250448;28;20053;-73
2022/12/26 00:39:10;;;;;;;8.50;4.50;;;;;;;7.66;100.00;100581.84;6250678;28;20052;-72
2022/12/26 00:42:12;;;;;;;12.38;4.90;;;;;;;7.68;100.00;100592.25;6250416;28;20049;-73
2022/12/26 00:45:13;;;;;;;11.77;4.70;;;;;;;7.70;100.00;100578.16;6250564;28;20053;-73
2022/12/26 00:48:16;;;;;;;10.23;4.80;;;;;;;7.70;100.00;100580.78;6250581;28;20053;-73
2022/12/26 00:51:18;;;;;;;8.93;4.15;;;;;;;7.67;100.00;100599.22;6243355;28;20521;-73
2022/12/26 00:54:19;;;;;;;9.32;4.50;;;;;;;7.70;100.00;100606.09;6247484;28;20054;-73
2022/12/26 00:57:20;;;;;;;12.93;5.07;;;;;;;7.70;100.00;100611.31;6250393;28;20053;-73
2022/12/26 01:00:22;;;;;;;12.18;5.00;;;;;;;7.72;100.00;100610.34;6249893;28;20049;-73
2022/12/26 01:03:24;;;;;;;16.20;6.15;;;;;;;7.74;100.00;100615.50;6250136;28;20060;-73
2022/12/26 01:06:26;;;;;;;14.23;5.68;;;;;;;7.72;100.00;100607.75;6250014;28;20049;-73
2022/12/26 01:09:27;;;;;;;11.05;4.95;;;;;;;7.71;100.00;100615.63;6248886;28;20052;-72
2022/12/26 01:12:29;;;;;;;10.73;5.00;;;;;;;7.68;100.00;100624.47;6249841;28;20060;-73
2022/12/26 01:15:30;;;;;;;10.82;5.05;;;;;;;7.66;100.00;100625.44;6249760;28;20156;-73
2022/12/26 01:18:34;;;;;;;11.55;4.00;;;;;;;7.62;100.00;100622.09;6249922;28;20042;-72
2022/12/26 01:21:35;;;;;;;12.57;5.25;;;;;;;7.62;100.00;100622.94;6249439;28;20049;-75
2022/12/26 01:24:37;;;;;;;14.05;5.78;;;;;;;7.61;100.00;100623.03;6249778;28;20045;-73
2022/12/26 01:27:38;;;;;;;12.00;5.38;;;;;;;7.63;100.00;100619.44;6249483;28;20045;-72
2022/12/26 01:30:39;;;;;;;16.73;6.63;;;;;;;7.61;100.00;100616.03;6249713;28;20053;-73
2022/12/26 01:33:42;;;;;;;10.85;4.03;;;;;;;7.61;100.00;100618.66;6234127;28;20519;-71
2022/12/26 01:36:43;;;;;;;13.35;5.38;;;;;;;7.63;100.00;100621.22;6238939;28;20056;-73
2022/12/26 01:39:45;;;;;;;16.05;5.55;;;;;;;7.62;100.00;100622.09;6241781;28;20046;-72
2022/12/26 01:42:46;;;;;;;12.95;4.82;;;;;;;7.68;100.00;100627.09;6238346;28;20042;-72
2022/12/26 01:45:50;;;;;;;17.20;5.20;;;;;;;7.74;100.00;100625.97;6224556;28;20046;-72
2022/12/26 01:48:53;;;;;;;13.07;4.90;;;;;;;7.69;100.00;100635.78;6233929;28;20509;-72
2022/12/26 01:51:59;;;;;;;11.38;4.68;;;;;;;7.69;100.00;100628.78;6249002;28;20054;-73
2022/12/26 01:55:00;;;;;;;13.65;5.80;;;;;;;7.70;100.00;100648.78;6248904;28;20057;-73
2022/12/26 01:58:07;;;;;;;12.45;4.50;;;;;;;7.71;100.00;100633.94;6248998;28;20056;-73
2022/12/26 02:01:10;;;;;;;17.35;5.40;;;;;;;7.72;100.00;100643.47;6224739;28;20050;-72
2022/12/26 02:07:47;;;;;;;11.30;4.75;;;;;;;7.71;100.00;100644.41;6132810;29;20423;-72
2022/12/26 02:10:52;;;;;;;17.30;5.45;;;;;;;7.71;100.00;100641.78;6227454;28;20061;-73
2022/12/26 02:13:54;;;;;;;11.05;5.15;;;;;;;7.69;100.00;100644.47;6223820;28;20054;-72
2022/12/26 02:16:56;;;;;;;10.75;5.03;;;;;;;7.70;100.00;100640.94;6224085;28;20054;-72
2022/12/26 02:20:10;;;;;;;15.98;5.03;;;;;;;7.74;100.00;100644.28;6223165;28;20050;-72
2022/12/26 02:23:51;;;;;;;15.02;5.18;;;;;;;7.74;100.00;100659.97;6223876;28;20050;-73
2022/12/26 02:27:15;;;;;;;16.08;5.25;;;;;;;7.68;100.00;100670.72;6223793;28;20417;-72
2022/12/26 02:30:34;;;;;;;15.90;4.97;;;;;;;7.66;100.00;100652.44;6223386;28;20070;-72
2022/12/26 02:33:46;;;;;;;19.92;6.50;;;;;;;7.65;100.00;100653.38;6223827;28;20049;-73
2022/12/26 02:37:02;;;;;;;13.68;5.72;;;;;;;7.62;100.00;100650.88;6223518;28;20057;-72
2022/12/26 02:40:19;;;;;;;17.50;6.25;;;;;;;7.66;100.00;100641.13;6223229;28;20054;-73
2022/12/26 02:43:31;;;;;;;21.63;5.13;;;;;;;7.65;100.00;100642.06;6223220;28;20050;-72
2022/12/26 03:13:51;;;;;;;14.38;5.40;;;;;;;7.72;100.00;100619.94;6222505;28;20081;-73
2022/12/26 03:20:23;;;;;;;17.90;6.40;;;;;;;7.83;100.00;100617.72;6222266;28;20058;-72
2022/12/26 03:23:25;;;;;;;11.32;5.13;;;;;;;7.81;100.00;100624.78;6222548;28;20050;-73
2022/12/26 03:26:40;;;;;;;16.67;5.40;;;;;;;7.78;100.00;100623.16;6222355;28;20061;-73
2022/12/26 03:33:01;;;;;;;13.65;5.30;;;;;;;7.72;100.00;100628.66;6221936;28;20054;-73
2022/12/26 03:36:05;;;;;;;16.92;5.28;;;;;;;7.78;100.00;100632.78;6222287;28;20061;-72
2022/12/26 03:39:16;;;;;;;19.02;5.32;;;;;;;7.83;100.00;100631.66;6222203;28;20057;-72
2022/12/26 04:20:16;;;;;;;13.25;5.97;;;;;;;7.84;100.00;100661.28;6221358;28;20109;-72
2022/12/26 04:46:57;;;;;;;15.82;5.63;;;;;;;7.92;100.00;100674.88;6226146;28;20058;-72
2022/12/26 04:50:13;;;;;;;16.67;6.78;;;;;;;7.91;100.00;100675.81;6225823;28;20093;-72
2022/12/26 04:53:15;;;;;;;16.58;6.60;;;;;;;7.97;100.00;100662.44;6226187;28;20053;-72
2022/12/26 04:56:17;;;;;;;17.10;6.97;;;;;;;7.91;100.00;100660.09;6225739;28;20054;-72
2022/12/26 04:59:21;;;;;;;19.08;6.68;;;;;;;7.88;100.00;100661.06;6225685;28;20531;-75
2022/12/26 05:12:22;;;;;;;18.60;6.80;;;;;;;7.87;100.00;100674.22;6225323;28;20553;-72
2022/12/26 05:15:25;;;;;;;18.63;7.05;;;;;;;7.88;100.00;100675.91;6225194;28;20056;-71
2022/12/26 05:28:42;;;;;;;26.70;7.53;;;;;;;7.84;100.00;100688.28;6223826;28;20041;-72
2022/12/26 05:31:45;;;;;;;17.73;6.68;;;;;;;7.84;100.00;100684.81;6223268;28;20049;-72
2022/12/26 05:34:45;;;;;;;15.68;5.65;;;;;;;7.86;100.00;100696.94;6224587;28;20053;-71
2022/12/26 05:37:47;;;;;;;17.23;6.97;;;;;;;7.92;100.00;100703.66;6224570;28;20457;-73
2022/12/26 05:40:48;;;;;;;17.35;7.07;;;;;;;7.93;100.00;100701.88;6223978;28;20046;-72
2022/12/26 05:43:49;;;;;;;19.15;6.95;;;;;;;7.96;100.00;100693.91;6224055;28;20042;-73
2022/12/26 05:46:52;;;;;;;18.15;6.78;;;;;;;7.99;100.00;100704.22;6224157;28;20145;-73
2022/12/26 05:49:53;;;;;;;21.48;7.53;;;;;;;7.98;100.00;100706.00;6223988;28;20042;-73
2022/12/26 05:52:56;;;;;;;19.33;7.10;;;;;;;8.02;100.00;100710.19;6222888;28;20058;-73
2022/12/26 05:56:02;;;;;;;19.70;6.65;;;;;;;8.00;100.00;100713.81;6224004;28;20050;-73
2022/12/26 05:59:03;;;;;;;19.80;6.57;;;;;;;7.97;100.00;100717.38;6224267;28;20053;-73
2022/12/26 06:02:06;;;;;;;27.25;7.78;;;;;;;7.98;100.00;100713.00;6224400;28;20057;-73
2022/12/26 06:05:08;;;;;;;18.73;7.88;;;;;;;7.96;100.00;100720.09;6222719;28;20053;-72
2022/12/26 06:08:09;;;;;;;21.35;6.68;;;;;;;7.95;100.00;100716.63;6222622;28;20042;-73
2022/12/26 06:11:12;;;;;;;12.50;6.13;;;;;;;7.93;100.00;100715.81;6222599;28;20061;-72
2022/12/26 06:14:14;;;;;;;16.42;6.68;;;;;;;7.89;100.00;100720.31;6222220;28;20050;-73
2022/12/26 06:17:16;;;;;;;14.98;6.50;;;;;;;7.88;100.00;100717.78;6222620;28;20050;-73
2022/12/26 06:20:18;;;;;;;17.67;5.95;;;;;;;7.92;100.00;100726.38;6221745;28;20414;-73
2022/12/26 06:23:19;;;;;;;20.63;7.38;;;;;;;7.92;100.00;100721.97;6221923;28;20054;-73
2022/12/26 06:26:21;;;;;;;20.15;7.03;;;;;;;7.88;100.00;100721.25;6221928;28;20107;-73
2022/12/26 06:29:22;;;;;;;15.77;6.22;;;;;;;7.86;100.00;100732.72;6222183;28;20042;-73
2022/12/26 06:32:25;;;;;;;11.82;5.97;;;;;;;7.81;100.00;100726.78;6221905;28;20418;-72
2022/12/26 06:35:26;;;;;;;15.13;6.55;;;;;;;7.85;100.00;100731.84;6223590;28;20050;-73
2022/12/26 06:38:28;;;;;;;12.90;6.47;;;;;;;7.79;100.00;100745.19;6223395;28;20042;-73
2022/12/26 06:41:29;;;;;;;20.88;7.18;;;;;;;7.79;100.00;100739.94;6223487;28;20062;-73
2022/12/26 06:44:30;;;;;;;16.23;6.45;;;;;;;7.84;100.00;100739.75;6223343;28;20056;-72
2022/12/26 06:47:33;;;;;;;13.48;5.70;;;;;;;7.82;100.00;100745.06;6223393;28;20497;-73
2022/12/26 06:50:35;;;;;;;20.67;6.30;;;;;;;7.79;100.00;100734.72;6223235;28;20050;-72
2022/12/26 06:53:37;;;;;;;17.40;6.65;;;;;;;7.80;100.00;100725.09;6223174;28;20053;-73
2022/12/26 06:56:38;;;;;;;12.95;5.15;;;;;;;7.79;100.00;100734.72;6223214;28;20057;-73
2022/12/26 06:59:40;;;;;;;11.65;5.10;;;;;;;7.77;100.00;100722.63;6222881;28;20042;-73
2022/12/26 07:02:42;;;;;;;13.68;5.30;;;;;;;7.71;100.00;100731.56;6222876;28;20057;-73
2022/12/26 07:05:44;;;;;;;10.52;4.78;;;;;;;7.68;100.00;100721.25;6222769;28;20054;-73
2022/12/26 07:08:45;;;;;;;13.77;5.03;;;;;;;7.67;100.00;100723.91;6222244;28;20053;-72
2022/12/26 07:11:49;;;;;;;12.55;5.45;;;;;;;7.67;100.00;100721.28;6221451;28;20494;-73
2022/12/26 07:14:50;;;;;;;10.05;4.32;;;;;;;7.69;100.00;100711.63;6220894;28;20402;-73
2022/12/26 07:17:53;;;;;;;12.68;5.82;;;;;;;7.66;100.00;100719.59;6218678;28;20061;-73
2022/12/26 07:20:54;;;;;;;12.35;5.40;;;;;;;7.64;100.00;100724.91;6220909;28;20056;-73
2022/12/26 07:23:56;;;;;;;10.98;5.65;;;;;;;7.63;100.00;100726.69;6220985;28;20065;-73
2022/12/26 07:26:57;;;;;;;14.15;5.65;;;;;;;7.61;100.00;100727.63;6220737;28;20048;-72
2022/12/26 07:29:59;;;;;;;12.70;4.68;;;;;;;7.61;100.00;100718.03;6220557;28;20685;-73
2022/12/26 07:33:01;;;;;;;13.07;4.70;;;;;;;7.54;100.00;100711.38;6220835;28;20501;-73
2022/12/26 07:36:05;;;;;;;11.40;5.22;;;;;;;7.50;100.00;100720.25;6222072;28;20505;-73
2022/12/26 07:39:06;;;;;;;11.77;4.53;;;;;;;7.56;100.00;100722.59;6222294;28;20045;-72
2022/12/26 07:42:07;;;;;;;12.10;4.78;;;;;;;7.58;100.00;100723.38;6222235;28;20049;-73
2022/12/26 07:45:09;;;;;;;13.48;5.63;;;;;;;7.65;100.00;100731.00;6222175;28;20050;-73
2022/12/26 07:48:12;;;;;;;18.17;6.13;;;;;;;7.55;100.00;100739.22;6222444;28;20057;-72
2022/12/26 07:51:14;;;;;;;15.32;4.55;;;;;;;7.56;100.00;100725.22;6222117;28;20497;-74
2022/12/26 07:54:15;;;;;;;13.40;4.53;;;;;;;7.53;100.00;100727.09;6221966;28;20049;-72
2022/12/26 07:57:16;;;;;;;11.57;4.75;;;;;;;7.49;100.00;100742.06;6217463;28;20441;-74
2022/12/26 08:00:19;;;;;;;16.25;5.05;;;;;;;7.47;100.00;100748.28;6222742;28;20053;-74
2022/12/26 08:03:22;;;;;;;11.90;4.82;;;;;;;7.46;100.00;100751.81;6227316;28;20041;-74
2022/12/26 08:06:23;;;;;;;16.63;4.38;;;;;;;7.40;100.00;100746.81;6236132;28;20050;-73
2022/12/26 08:09:24;;;;;;;12.02;4.53;;;;;;;7.32;100.00;100755.81;6238450;28;20493;-74
2022/12/26 08:12:26;;;;;;;9.18;4.32;;;;;;;7.30;100.00;100759.41;6235890;28;20052;-74
2022/12/26 08:15:27;;;;;;;12.82;4.88;;;;;;;7.33;100.00;100754.91;6246449;28;20505;-74
2022/12/26 08:18:29;;;;;;;10.68;4.15;;;;;;;7.34;100.00;100746.16;6247714;28;20049;-74
2022/12/26 08:21:31;;;;;;;11.60;5.15;;;;;;;7.36;100.00;100748.72;6249134;28;20521;-74
2022/12/26 08:24:32;;;;;;;9.60;4.60;;;;;;;7.34;100.00;100750.53;6241577;28;20455;-73
2022/12/26 08:27:33;;;;;;;11.18;4.72;;;;;;;7.32;100.00;100755.81;6251276;28;20049;-73
2022/12/26 08:30:35;;;;;;;13.57;5.07;;;;;;;7.35;100.00;100752.22;6250986;28;20042;-74
2022/12/26 08:33:37;;;;;;;10.07;4.72;;;;;;;7.39;100.00;100751.19;6250288;28;20053;-74
2022/12/26 08:36:39;;;;;;;14.48;5.75;;;;;;;7.50;100.00;100749.00;6242492;28;20054;-73
2022/12/26 08:39:40;;;;;;;14.02;5.22;;;;;;;7.58;100.00;100759.13;6225029;28;20050;-74
2022/12/26 08:42:42;;;;;;;13.40;5.95;;;;;;;7.61;100.00;100759.88;6225906;28;20053;-74
2022/12/26 08:45:43;;;;;;;14.20;5.65;;;;;;;7.62;100.00;100768.56;6225472;28;20053;-74
2022/12/26 08:48:46;;;;;;;12.77;5.03;;;;;;;7.62;100.00;100772.03;6225727;28;20521;-74
2022/12/26 08:51:48;;;;;;;13.52;5.80;;;;;;;7.63;100.00;100759.81;6225437;28;20053;-74
2022/12/26 08:54:49;;;;;;;15.10;6.75;;;;;;;7.64;100.00;100761.53;6225404;28;20053;-73
2022/12/26 08:57:51;;;;;;;11.63;5.70;;;;;;;7.61;100.00;100769.47;6225427;28;20044;-74
2022/12/26 09:00:52;;;;;;;14.50;6.60;;;;;;;7.60;100.00;100762.56;6225177;28;20045;-73
2022/12/26 09:03:57;;;;;;;15.48;6.30;;;;;;;7.59;100.00;100766.09;6227268;28;20494;-73
2022/12/26 09:06:58;;;;;;;14.70;6.82;;;;;;;7.63;100.00;100772.91;6226999;28;20050;-74
2022/12/26 09:09:59;;;;;;;21.35;8.77;;;;;;;7.72;100.00;100784.72;6246969;28;20054;-73
2022/12/26 09:13:01;;;;;;;19.40;6.75;;;;;;;7.72;100.00;100780.38;6233553;28;20053;-73
2022/12/26 09:16:08;;;;;;;13.15;5.90;;;;;;;7.74;100.00;100777.69;6240284;28;20049;-74
2022/12/26 09:19:13;;;;;;;13.48;5.78;;;;;;;7.84;100.00;100779.00;6237105;28;20053;-74
2022/12/26 09:25:33;;;;;;;14.13;5.68;;;;;;;7.93;100.00;100777.78;6232545;28;20128;-74
2022/12/26 09:28:35;;;;;;;18.58;7.28;;;;;;;7.99;100.00;100773.13;6241553;28;20057;-73
2022/12/26 09:31:36;;;;;;;12.38;5.60;;;;;;;8.01;100.00;100775.69;6248429;28;20497;-73
2022/12/26 09:34:39;;;;;;;12.10;6.05;;;;;;;8.10;100.00;100781.38;6245286;28;20046;-73
2022/12/26 09:37:41;;;;;;;14.20;6.85;;;;;;;8.17;100.00;100774.09;6227860;28;20508;-72
2022/12/26 09:40:56;;;;;;;13.23;5.85;;;;;;;8.14;100.00;100763.78;6235792;28;20056;-72
2022/12/26 09:44:04;;;;;;;14.85;6.53;;;;;;;8.23;100.00;100759.91;6239755;28;20049;-74
2022/12/26 09:47:16;;;;;;;9.35;4.97;;;;;;;8.32;100.00;100760.38;6224887;28;20049;-73
2022/12/26 09:50:25;;;;;;;13.25;6.15;;;;;;;8.34;100.00;100760.28;6224496;28;20053;-73
2022/12/26 09:53:32;;;;;;;10.52;4.90;;;;;;;8.33;100.00;100742.88;6220764;28;20060;-72
2022/12/26 09:56:37;;;;;;;11.02;5.20;;;;;;;8.39;100.00;100747.88;6223271;28;20065;-72
2022/12/26 09:59:46;;;;;;;11.65;5.55;;;;;;;8.41;100.00;100745.22;6224504;28;20409;-72
2022/12/26 10:02:51;;;;;;;10.90;5.17;;;;;;;8.29;100.00;100752.63;6238349;28;20056;-72
2022/12/26 10:06:10;;;;;;;10.25;4.88;;;;;;;8.36;100.00;100754.13;6234297;28;20049;-73
2022/12/26 10:09:28;;;;;;;12.60;4.83;;;;;;;8.39;100.00;100763.59;6248878;28;20417;-72
2022/12/26 10:12:50;;;;;;;8.90;4.33;;;;;;;8.39;100.00;100764.44;6239413;28;20048;-72
2022/12/26 10:15:54;;;;;;;8.10;4.38;;;;;;;8.46;100.00;100761.56;6228678;28;20049;-73
2022/12/26 10:19:02;;;;;;;8.70;4.55;;;;;;;8.45;100.00;100763.34;6234341;28;20049;-72
2022/12/26 10:22:18;;;;;;;8.13;4.25;;;;;;;8.49;100.00;100772.72;6248209;28;20052;-72
2022/12/26 10:25:24;;;;;;;7.57;3.50;;;;;;;8.52;100.00;100769.13;6248404;28;20053;-72
2022/12/26 10:28:34;;;;;;;9.20;3.55;;;;;;;8.56;100.00;100771.56;6234510;28;20049;-72
2022/12/26 10:31:40;;;;;;;7.75;4.40;;;;;;;8.60;100.00;100764.41;6232154;28;20402;-75
2022/12/26 10:34:45;;;;;;;7.25;3.60;;;;;;;8.64;100.00;100752.88;6216376;28;20070;-72
2022/12/26 10:37:49;;;;;;;6.82;3.90;;;;;;;8.67;100.00;100741.41;6220990;28;20042;-73
2022/12/26 10:40:54;;;;;;;7.18;4.00;;;;;;;8.70;100.00;100741.25;6225015;28;20046;-72
2022/12/26 10:43:56;;;;;;;5.40;3.05;;;;;;;8.74;100.00;100741.06;6224537;28;20046;-73
2022/12/26 10:47:15;;;;;;;4.90;3.17;;;;;;;8.84;100.00;100754.59;6239612;28;20509;-73
2022/12/26 10:50:18;;;;;;;4.38;3.15;;;;;;;8.95;100.00;100754.94;6237794;28;20042;-73
2022/12/26 10:53:21;;;;;;;6.03;3.00;;;;;;;9.02;100.00;100745.00;6241945;28;20045;-73
2022/12/26 10:56:25;;;;;;;6.82;2.70;;;;;;;8.98;100.00;100749.53;6239455;28;20560;-71
2022/12/26 10:59:38;;;;;;;8.40;2.90;;;;;;;9.01;100.00;100741.56;6247296;28;20045;-70
2022/12/26 11:02:39;;;;;;;3.80;2.58;;;;;;;9.00;100.00;100750.34;6235408;28;20056;-71
2022/12/26 11:05:44;;;;;;;4.13;2.72;;;;;;;9.01;100.00;100761.69;6241515;28;20049;-71
2022/12/26 11:08:50;;;;;;;4.40;2.55;;;;;;;9.14;100.00;100754.94;6238856;28;20068;-72
2022/12/26 11:11:53;;;;;;;4.88;2.20;;;;;;;9.12;100.00;100749.75;6231197;28;20464;-71
2022/12/26 11:14:59;;;;;;;3.60;2.78;;;;;;;9.25;100.00;100751.78;6221088;28;20057;-72
2022/12/26 11:18:19;;;;;;;7.65;2.97;;;;;;;9.30;100.00;100753.25;6228848;28;20453;-72
2022/12/26 11:21:22;;;;;;;2.72;2.10;;;;;;;9.35;100.00;100745.19;6232853;28;20049;-72
2022/12/26 11:24:25;;;;;;;3.25;2.08;;;;;;;9.36;100.00;100750.38;6238492;28;20045;-72
2022/12/26 11:27:26;;;;;;;3.60;1.70;;;;;;;9.40;100.00;100751.91;6232158;28;20053;-72
2022/12/26 11:30:30;;;;;;;2.13;1.60;;;;;;;9.46;100.00;100742.91;6244949;28;20049;-71
2022/12/26 11:33:35;;;;;;;4.32;2.05;;;;;;;9.48;100.00;100751.53;6247138;28;20512;-72
2022/12/26 11:36:40;;;;;;;4.20;2.58;;;;;;;9.42;100.00;100743.13;6246517;28;20057;-74
2022/12/26 11:39:42;;;;;;;4.20;1.85;;;;;;;9.47;100.00;100744.59;6245615;28;20665;-71
2022/12/26 11:42:49;;;;;;;6.95;2.10;;;;;;;9.40;100.00;100746.69;6224124;28;20137;-70
2022/12/26 11:45:50;;;;;;;8.07;2.47;;;;;;;9.45;100.00;100735.97;6220412;28;20050;-71
2022/12/26 11:48:51;;;;;;;2.85;1.90;;;;;;;9.48;100.00;100735.78;6221744;28;20046;-72
2022/12/26 11:51:54;;;;;;;6.40;1.60;;;;;;;9.51;100.00;100719.91;6221864;28;20081;-72
2022/12/26 11:54:56;;;;;;;2.00;1.60;;;;;;;9.51;100.00;100713.81;6217047;28;20441;-71
2022/12/26 11:58:00;;;;;;;2.30;1.23;;;;;;;9.54;100.00;100718.94;6221669;28;20490;-73
2022/12/26 12:01:09;;;;;;;2.22;1.55;;;;;;;9.49;100.00;100713.88;6220650;28;20053;-70
2022/12/26 12:04:10;;;;;;;5.10;1.75;;;;;;;9.55;100.00;100718.84;6220125;28;20046;-72
2022/12/26 12:07:26;;;;;;;9.98;1.40;;;;;;;9.51;100.00;100721.69;6222182;28;20057;-72
2022/12/26 12:10:51;;;;;;;3.03;1.50;;;;;;;9.42;100.00;100723.00;6221736;28;20421;-71
2022/12/26 12:14:06;;;;;;;2.58;1.52;;;;;;;9.48;100.00;100706.09;6221708;28;20076;-72
2022/12/26 12:17:18;;;;;;;1.65;1.00;;;;;;;9.43;100.00;100705.47;6221671;28;20403;-71
2022/12/26 12:20:31;;;;;;;2.83;1.20;;;;;;;9.44;100.00;100709.78;6221671;28;20058;-72
2022/12/26 12:23:47;;;;;;;0.93;0.82;;;;;;;9.44;100.00;100704.53;6221717;28;20464;-73
2022/12/26 12:27:01;;;;;;;2.53;1.33;;;;;;;9.45;100.00;100707.09;6221852;28;20049;-72
2022/12/26 12:30:18;;;;;;;2.30;1.52;;;;;;;9.37;100.00;100704.00;6221156;28;20049;-72
2022/12/26 12:33:32;;;;;;;4.18;1.52;;;;;;;9.23;100.00;100702.06;6218782;28;20069;-74
2022/12/26 12:36:38;;;;;;;2.10;1.00;;;;;;;9.10;100.00;100698.31;6221749;28;20053;-72
2022/12/26 12:39:52;;;;;;;2.78;1.20;;;;;;;9.06;100.00;100708.09;6221423;28;20046;-70
2022/12/26 12:43:04;;;;;;;3.70;1.20;;;;;;;8.97;100.00;100715.56;6232260;28;20050;-71
2022/12/26 12:46:15;;;;;;;1.45;1.33;;;;;;;8.95;100.00;100718.25;6228209;28;20053;-72
2022/12/26 12:49:34;;;;;;;7.70;1.30;;;;;;;8.89;100.00;100726.38;6218420;28;20069;-71
2022/12/26 12:52:43;;;;;;;4.75;1.90;;;;;;;8.85;100.00;100720.44;6227744;28;20045;-73
2022/12/26 12:55:57;;;;;;;0.77;0.77;;;;;;;8.87;100.00;100728.25;6230706;28;20049;-72
2022/12/26 12:59:06;;;;;;;1.73;0.93;;;;;;;8.81;100.00;100733.75;6245767;28;20053;-72
2022/12/26 13:02:15;;;;;;;1.15;1.05;;;;;;;8.81;100.00;100737.25;6216910;28;20038;-71
2022/12/26 13:05:23;;;;;;;1.02;0.93;;;;;;;8.76;100.00;100736.59;6221946;28;20390;-75
2022/12/26 13:08:31;;;;;;;2.50;1.33;;;;;;;8.69;100.00;100753.53;6225775;28;20137;-74
2022/12/26 13:11:36;;;;;;;3.45;1.10;;;;;;;8.74;100.00;100745.44;6225440;28;20049;-76
2022/12/26 13:14:46;;;;;;;1.40;1.30;;;;;;;8.75;100.00;100742.75;6225488;28;20046;-73
2022/12/26 13:17:53;;;;;;;0.77;0.68;;;;;;;8.78;100.00;100739.16;6230040;28;20049;-74
2022/12/26 13:21:00;;;;;;;1.02;0.93;;;;;;;8.86;100.00;100748.38;6220574;28;20046;-73
2022/12/26 13:24:24;;;;;;;1.20;1.10;;;;;;;8.84;100.00;100760.66;6224560;28;20121;-74
2022/12/26 13:27:29;;;;;;;3.45;1.40;;;;;;;8.83;100.00;100764.22;6225128;28;20052;-73
2022/12/26 13:30:32;;;;;;;1.63;0.90;;;;;;;8.83;100.00;100782.56;6225151;28;20046;-71
2022/12/26 13:33:34;;;;;;;0.70;0.70;;;;;;;8.84;100.00;100788.66;6225071;28;20393;-70
2022/12/26 13:36:39;;;;;;;3.75;0.93;;;;;;;8.81;100.00;100804.50;6226888;28;20493;-70
2022/12/26 13:39:41;;;;;;;2.67;0.50;;;;;;;8.54;100.00;100833.66;6228034;28;20053;-71
2022/12/26 13:46:53;;;;;;;0.30;0.30;;;;;;;7.94;100.00;100855.34;6241061;28;20045;-72
2022/12/26 13:49:54;;;;;;;1.85;0.32;;;;;;;7.76;100.00;100843.84;6249157;28;20136;-71
2022/12/26 13:52:56;;;;;;;0.55;0.43;;;;;;;7.59;100.00;100855.00;6232102;28;20053;-72
2022/12/26 13:55:59;;;;;;;6.50;0.68;;;;;;;7.57;100.00;100867.28;6226938;28;20056;-71
2022/12/26 13:59:09;;;;;;;3.47;0.85;;;;;;;7.44;100.00;100866.03;6222074;28;20394;-72
2022/12/26 14:02:38;;;;;;;1.95;0.47;;;;;;;7.39;100.00;100871.44;6248671;28;20056;-72
2022/12/26 14:05:44;;;;;;;;;;;;;;;7.34;100.00;100879.47;6249281;28;20050;-71
2022/12/26 14:09:01;;;;;;;1.33;0.50;;;;;;;7.29;100.00;100881.41;6248818;28;19921;-72
2022/12/26 14:12:20;;;;;;;5.28;0.43;;;;;;;7.18;100.00;100901.88;6227054;28;20037;-72
2022/12/26 14:15:36;;;;;;;0.80;0.60;;;;;;;7.16;100.00;100913.28;6231752;28;20041;-71
2022/12/26 14:18:47;;;;;;;1.08;0.32;;;;;;;7.15;100.00;100917.66;6225950;28;20049;-72
2022/12/26 14:21:58;;;;;;;2.97;0.60;;;;;;;7.16;100.00;100929.81;6229148;28;20041;-71
2022/12/26 14:25:09;;;;;;;6.35;0.75;;;;;;;7.15;100.00;100942.94;6235465;28;20054;-72
2022/12/26 14:28:21;;;;;;;2.97;0.95;;;;;;;7.20;100.00;100946.25;6223194;28;20045;-71
2022/12/26 14:31:31;;;;;;;2.17;0.68;;;;;;;7.04;100.00;100938.09;6227960;28;20064;-71
2022/12/26 14:34:55;;;;;;;0.47;0.35;;;;;;;6.96;100.00;100946.22;6238752;28;20421;-71
2022/12/26 14:38:18;;;;;;;2.08;0.30;;;;;;;6.85;100.00;100948.34;6225579;28;20524;-71
2022/12/26 14:44:43;;;;;;;1.52;0.40;;;;;;;6.70;100.00;100973.22;6239459;28;20049;-71
2022/12/26 14:47:47;;;;;;;2.67;0.30;;;;;;;6.72;100.00;100975.78;6243366;28;20124;-72
2022/12/26 14:50:51;;;;;;;7.18;0.60;;;;;;;6.56;100.00;100978.91;6232095;28;20048;-71
2022/12/26 14:54:28;;;;;;;4.15;0.60;;;;;;;6.50;100.00;100984.34;6238117;28;20053;-71
2022/12/26 14:57:44;;;;;;;0.57;0.43;;;;;;;6.44;100.00;100986.28;6233048;28;20046;-72
2022/12/26 15:00:47;;;;;;;0.55;0.55;;;;;;;6.39;100.00;100985.59;6201745;28;20189;-71
2022/12/26 15:03:55;;;;;;;1.08;0.40;;;;;;;6.32;100.00;101000.59;6239361;28;20049;-71
2022/12/26 15:07:18;;;;;;;1.75;0.40;;;;;;;6.32;100.00;100998.84;6247414;28;20053;-71
2022/12/26 15:10:39;;;;;;;1.25;0.52;;;;;;;6.28;100.00;101014.63;6247416;28;20064;-71
2022/12/26 15:14:05;;;;;;;0.75;0.43;;;;;;;6.24;100.00;101015.63;6247349;28;20049;-71
2022/12/26 15:17:16;;;;;;;1.75;1.10;;;;;;;6.18;100.00;101018.44;6247350;28;20049;-72
2022/12/26 15:21:00;;;;;;;0.90;0.30;;;;;;;6.14;100.00;101028.13;6247269;28;20045;-71
2022/12/26 15:24:31;;;;;;;5.20;0.70;;;;;;;6.15;100.00;101027.22;6197578;28;20049;-71
2022/12/26 15:27:58;;;;;;;3.25;0.57;;;;;;;6.08;100.00;101036.97;6233245;28;20041;-72
2022/12/26 15:31:24;;;;;;;2.28;0.40;;;;;;;6.05;100.00;101044.91;6233529;28;20067;-71
2022/12/26 15:34:38;;;;;;;1.83;0.70;;;;;;;6.08;100.00;101052.63;6215829;28;20064;-72
2022/12/26 15:37:55;;;;;;;2.65;0.70;;;;;;;5.96;100.00;101049.53;6246898;28;20056;-71
2022/12/26 15:41:12;;;;;;;2.35;0.35;;;;;;;6.01;100.00;101065.91;6246499;28;20056;-72
2022/12/26 15:44:26;;;;;;;2.22;0.60;;;;;;;6.06;100.00;101066.63;6246468;28;20052;-72
2022/12/26 15:47:37;;;;;;;5.93;1.50;;;;;;;5.88;100.00;101073.19;6246777;28;20054;-72
2022/12/26 15:50:55;;;;;;;1.50;0.90;;;;;;;5.84;100.00;101071.56;6246405;28;20428;-72
2022/12/26 15:54:13;;;;;;;1.70;0.68;;;;;;;5.77;100.00;101073.50;6246566;28;20141;-72
2022/12/26 15:57:23;;;;;;;5.57;0.70;;;;;;;5.72;100.00;101087.56;6246514;28;20061;-71
2022/12/26 16:00:26;;;;;;;0.63;0.25;;;;;;;5.70;100.00;101097.19;6246388;28;20056;-71
2022/12/26 16:03:37;;;;;;;0.65;0.63;;;;;;;5.71;100.00;101106.72;6246386;28;20045;-72
2022/12/26 16:06:49;;;;;;;0.45;0.40;;;;;;;5.76;100.00;101112.66;6246568;28;20489;-72
2022/12/26 16:09:53;;;;;;;1.35;0.45;;;;;;;5.76;100.00;101118.72;6246108;28;20057;-72
2022/12/26 16:13:03;;;;;;;9.23;0.80;;;;;;;5.77;100.00;101123.06;6246416;28;20057;-72
2022/12/26 16:16:05;;;;;;;3.90;0.70;;;;;;;5.64;100.00;101120.81;6246210;28;20068;-72
2022/12/26 16:19:17;;;;;;;0.30;0.30;;;;;;;5.71;100.00;101131.03;6246250;28;20440;-72
2022/12/26 16:25:47;;;;;;;11.15;0.70;;;;;;;5.59;100.00;101145.25;6246096;28;20046;-71
2022/12/26 16:28:51;;;;;;;9.98;0.57;;;;;;;5.60;100.00;101144.34;6245960;28;20056;-72
2022/12/26 16:32:02;;;;;;;1.52;0.80;;;;;;;5.56;100.00;101149.69;6245908;28;20392;-71
2022/12/26 16:35:05;;;;;;;11.63;1.42;;;;;;;5.53;100.00;101152.38;6245926;28;20053;-71
2022/12/26 16:38:12;;;;;;;3.22;0.98;;;;;;;5.49;100.00;101159.41;6246295;28;20049;-71